createdAt,value
2019-03-03T00:02:12.334Z,75.86
2019-03-03T00:04:42.827Z,76.12
2019-03-03T00:07:13.293Z,76.29
2019-03-03T00:09:43.817Z,76.16
2019-03-03T00:12:14.347Z,75.89
2019-03-03T00:14:44.750Z,76.01
2019-03-03T00:17:15.260Z,76.47
2019-03-03T00:19:45.698Z,75.84
2019-03-03T00:22:16.095Z,75.56
2019-03-03T00:24:46.567Z,75.54
2019-03-03T00:27:17.023Z,75.59
2019-03-03T00:29:47.488Z,75.88
2019-03-03T00:32:17.979Z,75.57
2019-03-03T00:34:49.541Z,75.73
2019-03-03T00:37:25.661Z,75.36
2019-03-03T00:40:13.364Z,75.62
2019-03-03T00:43:08.781Z,76.01
2019-03-03T00:45:57.816Z,75.28
2019-03-03T00:48:54.810Z,75.08
2019-03-03T00:51:38.922Z,75.48
2019-03-03T00:54:27.190Z,75.60
2019-03-03T00:57:06.610Z,75.60
2019-03-03T00:59:43.685Z,75.47
2019-03-03T01:02:31.623Z,75.87
2019-03-03T01:05:20.871Z,76.07
2019-03-03T01:08:28.397Z,75.79
2019-03-03T01:11:11.110Z,76.13
2019-03-03T01:13:51.365Z,75.86
2019-03-03T01:16:43.386Z,75.54
2019-03-03T01:19:29.075Z,75.28
2019-03-03T01:22:15.798Z,75.10
2019-03-03T01:24:55.586Z,74.89
2019-03-03T01:27:27.118Z,75.17
2019-03-03T01:29:57.475Z,75.16
2019-03-03T01:32:28.086Z,75.66
2019-03-03T01:34:58.457Z,75.30
2019-03-03T01:37:28.812Z,75.51
2019-03-03T01:39:59.306Z,75.43
2019-03-03T01:42:29.657Z,75.42
2019-03-03T01:44:59.980Z,75.19
2019-03-03T01:47:30.434Z,75.18
2019-03-03T01:50:00.924Z,75.18
2019-03-03T01:52:31.364Z,75.22
2019-03-03T01:55:01.683Z,74.84
2019-03-03T01:57:32.150Z,74.97
2019-03-03T02:00:02.521Z,75.11
2019-03-03T02:02:33.203Z,75.34
2019-03-03T02:05:03.634Z,75.52
2019-03-03T02:07:34.114Z,75.41
2019-03-03T02:10:04.718Z,75.39
2019-03-03T02:12:35.283Z,75.24
2019-03-03T02:15:06.393Z,75.11
2019-03-03T02:17:36.809Z,74.84
2019-03-03T02:20:07.917Z,74.92
2019-03-03T02:22:38.259Z,74.79
2019-03-03T02:25:09.040Z,74.84
2019-03-03T02:27:39.440Z,74.94
2019-03-03T02:30:15.749Z,75.06
2019-03-03T02:32:46.240Z,75.02
2019-03-03T02:35:17.141Z,75.10
2019-03-03T02:37:47.908Z,75.08
2019-03-03T02:40:18.818Z,74.93
2019-03-03T02:42:49.229Z,74.76
2019-03-03T02:45:20.321Z,74.75
2019-03-03T02:47:50.800Z,74.91
2019-03-03T02:50:21.167Z,75.03
2019-03-03T02:52:51.589Z,75.22
2019-03-03T02:55:21.909Z,74.88
2019-03-03T02:57:52.331Z,74.65
2019-03-03T03:00:23.052Z,74.76
2019-03-03T03:02:58.195Z,74.48
2019-03-03T03:05:46.687Z,74.30
2019-03-03T03:08:23.838Z,74.24
2019-03-03T03:11:18.978Z,74.62
2019-03-03T03:14:08.238Z,74.36
2019-03-03T03:17:04.158Z,74.48
2019-03-03T03:20:08.850Z,74.45
2019-03-03T03:22:49.103Z,74.34
2019-03-03T03:25:41.431Z,74.41
2019-03-03T03:28:22.496Z,74.38
2019-03-03T03:31:02.572Z,74.82
2019-03-03T03:33:48.874Z,74.82
2019-03-03T03:36:28.962Z,74.77
2019-03-03T03:39:09.052Z,74.94
2019-03-03T03:41:56.934Z,74.69
2019-03-03T03:44:58.474Z,74.52
2019-03-03T03:47:37.188Z,74.12
2019-03-03T03:50:20.215Z,73.82
2019-03-03T03:53:08.588Z,74.01
2019-03-03T03:56:05.079Z,73.91
2019-03-03T03:59:12.807Z,73.85
2019-03-03T04:02:00.787Z,74.04
2019-03-03T04:04:48.761Z,74.16
2019-03-03T04:07:43.727Z,74.01
2019-03-03T04:10:35.695Z,74.37
2019-03-03T04:13:24.863Z,74.49
2019-03-03T04:16:29.796Z,73.86
2019-03-03T04:19:06.527Z,74.16
2019-03-03T04:21:50.310Z,74.07
2019-03-03T04:24:42.406Z,74.31
2019-03-03T04:27:30.668Z,74.04
2019-03-03T04:30:11.951Z,74.15
2019-03-03T04:33:04.096Z,74.19
2019-03-03T04:35:43.403Z,74.11
2019-03-03T04:38:23.812Z,74.05
2019-03-03T04:41:19.538Z,74.21
2019-03-03T04:44:06.924Z,74.30
2019-03-03T04:46:58.360Z,74.44
2019-03-03T04:49:46.417Z,74.25
2019-03-03T04:52:31.471Z,73.98
2019-03-03T04:55:23.524Z,74.28
2019-03-03T04:58:10.097Z,74.05
2019-03-03T05:00:58.332Z,73.90
2019-03-03T05:03:46.489Z,73.67
2019-03-03T05:06:29.710Z,73.39
2019-03-03T05:09:11.078Z,73.41
2019-03-03T05:12:43.238Z,73.41
2019-03-03T05:15:38.123Z,73.60
2019-03-03T05:18:27.436Z,73.70
2019-03-03T05:20:57.895Z,73.48
2019-03-03T05:23:28.256Z,73.84
2019-03-03T05:25:58.666Z,73.71
2019-03-03T05:28:29.045Z,73.97
2019-03-03T05:30:59.963Z,73.82
2019-03-03T05:33:30.421Z,73.33
2019-03-03T05:36:00.736Z,73.38
2019-03-03T05:38:31.153Z,73.01
2019-03-03T05:41:01.654Z,72.97
2019-03-03T05:43:31.963Z,72.79
2019-03-03T05:46:02.345Z,72.64
2019-03-03T05:48:32.750Z,72.49
2019-03-03T05:51:03.226Z,72.33
2019-03-03T05:53:33.583Z,72.29
2019-03-03T05:56:04.010Z,72.30
2019-03-03T05:58:34.453Z,72.07
2019-03-03T06:01:05.015Z,72.50
2019-03-03T06:03:35.343Z,72.21
2019-03-03T06:06:05.750Z,72.29
2019-03-03T06:08:36.262Z,72.27
2019-03-03T06:11:06.794Z,71.85
2019-03-03T06:13:37.073Z,71.81
2019-03-03T06:16:07.546Z,71.82
2019-03-03T06:18:37.980Z,72.02
2019-03-03T06:21:08.511Z,71.85
2019-03-03T06:23:38.918Z,71.27
2019-03-03T06:26:09.166Z,71.20
2019-03-03T06:28:39.656Z,71.20
2019-03-03T06:31:10.130Z,70.49
2019-03-03T06:33:40.580Z,70.06
2019-03-03T06:36:11.046Z,70.27
2019-03-03T06:38:41.478Z,70.14
2019-03-03T06:41:11.999Z,70.25
2019-03-03T06:43:42.455Z,70.20
2019-03-03T06:46:12.884Z,69.80
2019-03-03T06:48:43.673Z,69.50
2019-03-03T06:51:14.099Z,68.49
2019-03-03T06:53:48.913Z,68.09
2019-03-03T06:56:19.407Z,67.25
2019-03-03T06:58:49.827Z,66.76
2019-03-03T07:01:20.268Z,66.58
2019-03-03T07:03:50.702Z,65.91
2019-03-03T07:06:21.080Z,65.34
2019-03-03T07:08:51.419Z,64.43
2019-03-03T07:11:21.856Z,63.03
2019-03-03T07:13:52.301Z,62.00
2019-03-03T07:16:22.650Z,61.52
2019-03-03T07:18:53.157Z,59.60
2019-03-03T07:21:23.555Z,56.61
2019-03-03T07:23:54.031Z,56.66
2019-03-03T07:26:24.525Z,57.83
2019-03-03T07:28:55.344Z,58.74
2019-03-03T07:31:25.693Z,59.07
2019-03-03T07:33:58.899Z,59.51
2019-03-03T07:36:29.336Z,59.37
2019-03-03T07:38:59.777Z,59.02
2019-03-03T07:41:30.833Z,59.25
2019-03-03T07:44:01.363Z,59.16
2019-03-03T07:46:31.937Z,59.28
2019-03-03T07:49:02.501Z,59.99
2019-03-03T07:51:32.937Z,60.14
2019-03-03T07:54:03.298Z,60.40
2019-03-03T07:56:33.711Z,60.56
2019-03-03T07:59:04.193Z,60.54
2019-03-03T08:01:34.484Z,60.31
2019-03-03T08:04:05.160Z,60.98
2019-03-03T08:06:39.733Z,60.33
2019-03-03T08:09:11.133Z,58.21
2019-03-03T08:11:41.620Z,57.72
2019-03-03T08:14:12.184Z,56.66
2019-03-03T08:16:42.609Z,56.47
2019-03-03T08:19:14.667Z,56.42
2019-03-03T08:21:45.133Z,56.16
2019-03-03T08:24:15.544Z,55.59
2019-03-03T08:26:45.749Z,56.47
2019-03-03T08:29:16.172Z,57.21
2019-03-03T08:31:46.494Z,57.72
2019-03-03T08:34:16.946Z,57.46
2019-03-03T08:36:47.498Z,57.04
2019-03-03T08:39:17.886Z,57.36
2019-03-03T08:41:52.648Z,57.60
2019-03-03T08:44:35.231Z,57.79
2019-03-03T08:47:10.463Z,57.53
2019-03-03T08:49:57.756Z,56.71
2019-03-03T08:52:40.902Z,55.69
2019-03-03T08:55:18.914Z,55.32
2019-03-03T08:58:11.169Z,54.64
2019-03-03T09:00:48.125Z,51.99
2019-03-03T09:03:37.440Z,49.72
2019-03-03T09:06:25.664Z,45.14
2019-03-03T09:09:19.621Z,41.07
2019-03-03T09:12:08.918Z,37.68
2019-03-03T09:14:51.080Z,35.77
2019-03-03T09:17:49.341Z,31.30
2019-03-03T09:20:35.578Z,28.03
2019-03-03T09:23:23.517Z,27.60
2019-03-03T09:26:05.161Z,28.36
2019-03-03T09:28:46.444Z,26.74
2019-03-03T09:31:44.791Z,25.93
2019-03-03T09:34:32.690Z,26.02
2019-03-03T09:37:20.980Z,25.36
2019-03-03T09:40:28.877Z,24.90
2019-03-03T09:43:24.293Z,24.54
2019-03-03T09:46:12.234Z,23.49
2019-03-03T09:49:00.669Z,24.15
2019-03-03T09:51:59.255Z,23.69
2019-03-03T09:54:50.380Z,23.05
2019-03-03T09:57:48.537Z,24.51
2019-03-03T10:00:43.862Z,24.63
2019-03-03T10:03:27.771Z,24.17
2019-03-03T10:06:20.120Z,25.66
2019-03-03T10:09:09.410Z,25.54
2019-03-03T10:12:01.550Z,26.06
2019-03-03T10:14:40.418Z,25.18
2019-03-03T10:17:25.902Z,25.26
2019-03-03T10:20:14.648Z,25.06
2019-03-03T10:23:02.684Z,25.26
2019-03-03T10:25:44.188Z,25.41
2019-03-03T10:28:32.163Z,24.26
2019-03-03T10:31:21.457Z,24.32
2019-03-03T10:34:08.051Z,24.40
2019-03-03T10:36:48.031Z,24.05
2019-03-03T10:39:23.676Z,24.49
2019-03-03T10:42:07.696Z,25.29
2019-03-03T10:45:00.219Z,25.71
2019-03-03T10:47:48.422Z,24.86
2019-03-03T10:50:43.273Z,24.97
2019-03-03T10:53:22.437Z,24.92
2019-03-03T10:56:26.756Z,25.47
2019-03-03T10:59:03.644Z,27.25
2019-03-03T11:01:55.987Z,28.82
2019-03-03T11:04:51.295Z,29.57
2019-03-03T11:07:39.640Z,30.27
2019-03-03T11:10:18.032Z,31.05
2019-03-03T11:13:08.155Z,32.64
2019-03-03T11:15:52.862Z,33.09
2019-03-03T11:18:42.417Z,33.51
2019-03-03T11:21:30.646Z,33.52
2019-03-03T11:24:07.383Z,34.09
2019-03-03T11:26:45.658Z,33.21
2019-03-03T11:29:46.993Z,34.20
2019-03-03T11:32:23.996Z,33.48
2019-03-03T11:35:16.137Z,34.01
2019-03-03T11:38:05.439Z,34.13
2019-03-03T11:40:41.815Z,33.40
2019-03-03T11:43:18.624Z,34.74
2019-03-03T11:46:20.281Z,35.16
2019-03-03T11:49:24.883Z,34.98
2019-03-03T11:52:26.377Z,34.79
2019-03-03T11:55:15.673Z,35.35
2019-03-03T11:58:02.803Z,35.24
2019-03-03T12:00:52.094Z,35.69
2019-03-03T12:03:53.484Z,34.50
2019-03-03T12:06:38.499Z,33.73
2019-03-03T12:09:22.929Z,33.35
2019-03-03T12:12:06.066Z,33.23
2019-03-03T12:15:04.485Z,32.47
2019-03-03T12:17:50.372Z,32.54
2019-03-03T12:20:54.895Z,32.84
2019-03-03T12:23:36.861Z,33.01
2019-03-03T12:26:22.951Z,32.55
2019-03-03T12:29:21.738Z,32.10
2019-03-03T12:32:11.069Z,32.71
2019-03-03T12:35:03.502Z,32.86
2019-03-03T12:37:53.150Z,32.70
2019-03-03T12:40:41.478Z,32.94
2019-03-03T12:43:30.605Z,33.13
2019-03-03T12:46:22.801Z,33.79
2019-03-03T12:49:03.390Z,34.13
2019-03-03T12:51:52.092Z,33.77
2019-03-03T12:54:43.797Z,34.24
2019-03-03T12:57:33.143Z,34.75
2019-03-03T13:00:37.824Z,33.80
2019-03-03T13:03:27.184Z,35.46
2019-03-03T13:06:24.070Z,35.17
2019-03-03T13:09:05.161Z,33.41
2019-03-03T13:12:06.497Z,33.60
2019-03-03T13:14:52.713Z,33.34
2019-03-03T13:17:54.335Z,33.12
2019-03-03T13:20:52.933Z,32.79
2019-03-03T13:23:29.304Z,33.47
2019-03-03T13:26:20.942Z,34.64
2019-03-03T13:29:05.000Z,34.99
2019-03-03T13:31:53.215Z,35.00
2019-03-03T13:34:42.405Z,35.71
2019-03-03T13:37:31.592Z,35.39
2019-03-03T13:40:20.554Z,36.08
2019-03-03T13:43:00.216Z,35.57
2019-03-03T13:45:33.942Z,36.00
2019-03-03T13:48:04.387Z,35.52
2019-03-03T13:50:35.057Z,35.21
2019-03-03T13:53:05.648Z,35.85
2019-03-03T13:55:36.320Z,35.91
2019-03-03T13:58:09.970Z,35.39
2019-03-03T14:00:40.471Z,37.12
2019-03-03T14:03:10.783Z,37.46
2019-03-03T14:05:41.208Z,37.59
2019-03-03T14:08:11.646Z,37.29
2019-03-03T14:10:42.082Z,38.75
2019-03-03T14:13:12.466Z,38.44
2019-03-03T14:15:42.909Z,38.98
2019-03-03T14:18:13.533Z,38.62
2019-03-03T14:20:44.164Z,39.21
2019-03-03T14:23:14.615Z,39.24
2019-03-03T14:25:45.055Z,39.08
2019-03-03T14:28:15.468Z,38.52
2019-03-03T14:30:45.974Z,39.46
2019-03-03T14:33:16.379Z,39.73
2019-03-03T14:35:46.719Z,40.17
2019-03-03T14:38:17.353Z,40.15
2019-03-03T14:40:48.212Z,40.32
2019-03-03T14:43:18.973Z,40.01
2019-03-03T14:45:49.416Z,40.61
2019-03-03T14:48:19.758Z,41.02
2019-03-03T14:50:50.457Z,41.76
2019-03-03T14:53:21.134Z,42.11
2019-03-03T14:55:51.756Z,41.99
2019-03-03T14:58:22.247Z,41.87
2019-03-03T15:00:52.947Z,41.72
2019-03-03T15:03:23.565Z,41.95
2019-03-03T15:05:54.204Z,42.61
2019-03-03T15:08:24.834Z,42.62
2019-03-03T15:10:55.566Z,43.16
2019-03-03T15:13:26.015Z,42.86
2019-03-03T15:15:56.682Z,42.81
2019-03-03T15:18:27.251Z,43.07
2019-03-03T15:20:57.955Z,43.79
2019-03-03T15:23:28.759Z,43.70
2019-03-03T15:25:59.345Z,43.32
2019-03-03T15:28:29.882Z,43.34
2019-03-03T15:31:00.389Z,44.06
2019-03-03T15:33:31.042Z,43.83
2019-03-03T15:36:01.803Z,44.11
2019-03-03T15:38:32.891Z,43.72
2019-03-03T15:41:03.678Z,44.29
2019-03-03T15:43:34.075Z,44.57
2019-03-03T15:46:04.521Z,44.79
2019-03-03T15:48:35.345Z,44.82
2019-03-03T15:51:06.042Z,45.21
2019-03-03T15:53:36.574Z,45.13
2019-03-03T15:56:07.171Z,44.89
2019-03-03T15:58:40.629Z,45.54
2019-03-03T16:01:17.397Z,45.54
2019-03-03T16:03:50.218Z,45.85
2019-03-03T16:06:21.027Z,45.99
2019-03-03T16:08:51.638Z,45.58
2019-03-03T16:11:22.160Z,46.08
2019-03-03T16:13:54.244Z,45.57
2019-03-03T16:16:24.744Z,45.64
2019-03-03T16:18:55.123Z,46.21
2019-03-03T16:21:25.578Z,46.35
2019-03-03T16:23:56.280Z,47.11
2019-03-03T16:26:26.851Z,46.97
2019-03-03T16:28:58.131Z,47.36
2019-03-03T16:31:32.445Z,47.13
2019-03-03T16:34:05.009Z,47.06
2019-03-03T16:36:36.441Z,47.00
2019-03-03T16:39:09.398Z,46.98
2019-03-03T16:41:39.898Z,46.81
2019-03-03T16:44:10.564Z,47.39
2019-03-03T16:46:41.960Z,47.53
2019-03-03T16:49:12.691Z,47.58
2019-03-03T16:51:43.198Z,47.75
2019-03-03T16:54:13.516Z,48.42
2019-03-03T16:56:45.226Z,48.20
2019-03-03T16:59:16.836Z,48.34
2019-03-03T17:01:50.564Z,49.39
2019-03-03T17:04:20.842Z,48.67
2019-03-03T17:06:51.440Z,48.78
2019-03-03T17:09:22.138Z,49.23
2019-03-03T17:11:52.826Z,48.87
2019-03-03T17:14:25.487Z,49.24
2019-03-03T17:16:56.808Z,49.33
2019-03-03T17:19:28.695Z,49.69
2019-03-03T17:22:02.243Z,49.85
2019-03-03T17:24:32.968Z,49.38
2019-03-03T17:27:06.472Z,49.56
2019-03-03T17:29:40.311Z,49.44
2019-03-03T17:32:11.038Z,49.59
2019-03-03T17:34:41.631Z,49.08
2019-03-03T17:37:12.298Z,49.25
2019-03-03T17:39:42.857Z,48.92
2019-03-03T17:42:13.252Z,49.28
2019-03-03T17:44:45.496Z,48.70
2019-03-03T17:47:16.458Z,49.19
2019-03-03T17:49:47.098Z,48.44
2019-03-03T17:52:17.845Z,48.65
2019-03-03T17:54:48.328Z,48.60
2019-03-03T17:57:18.788Z,48.86
2019-03-03T17:59:50.552Z,48.60
2019-03-03T18:02:21.145Z,49.46
2019-03-03T18:04:51.574Z,49.20
2019-03-03T18:07:22.093Z,49.15
2019-03-03T18:09:52.646Z,50.12
2019-03-03T18:12:24.139Z,50.47
2019-03-03T18:14:54.996Z,50.53
2019-03-03T18:17:25.514Z,50.14
2019-03-03T18:19:56.658Z,50.81
2019-03-03T18:22:26.958Z,51.17
2019-03-03T18:24:57.648Z,51.52
2019-03-03T18:27:28.180Z,52.34
2019-03-03T18:29:58.557Z,51.83
2019-03-03T18:32:29.098Z,51.98
2019-03-03T18:34:59.485Z,52.07
2019-03-03T18:37:29.889Z,52.13
2019-03-03T18:40:00.351Z,52.47
2019-03-03T18:42:31.189Z,52.36
2019-03-03T18:45:01.684Z,51.53
2019-03-03T18:47:32.148Z,52.17
2019-03-03T18:50:02.619Z,52.57
2019-03-03T18:52:33.046Z,52.30
2019-03-03T18:55:03.503Z,52.14
2019-03-03T18:57:33.846Z,52.99
2019-03-03T19:00:04.786Z,52.42
2019-03-03T19:02:35.285Z,52.72
2019-03-03T19:05:06.010Z,52.65
2019-03-03T19:07:36.658Z,52.02
2019-03-03T19:10:10.071Z,52.66
2019-03-03T19:12:40.473Z,52.73
2019-03-03T19:15:14.136Z,52.47
2019-03-03T19:17:44.555Z,52.31
2019-03-03T19:20:17.578Z,52.04
2019-03-03T19:22:48.136Z,52.87
2019-03-03T19:25:19.014Z,53.37
2019-03-03T19:27:50.105Z,53.26
2019-03-03T19:30:25.356Z,51.53
2019-03-03T19:33:04.134Z,52.27
2019-03-03T19:35:37.692Z,51.31
2019-03-03T19:38:08.065Z,51.62
2019-03-03T19:40:49.041Z,52.66
2019-03-03T19:43:19.532Z,52.68
2019-03-03T19:45:50.325Z,51.93
2019-03-03T19:48:20.899Z,51.51
2019-03-03T19:50:51.263Z,51.94
2019-03-03T19:53:21.682Z,51.56
2019-03-03T19:55:52.119Z,52.77
2019-03-03T19:58:22.485Z,53.14
2019-03-03T20:00:53.039Z,53.75
2019-03-03T20:03:23.750Z,54.00
2019-03-03T20:05:54.803Z,53.89
2019-03-03T20:08:25.567Z,54.36
2019-03-03T20:11:01.091Z,54.21
2019-03-03T20:13:32.021Z,53.92
2019-03-03T20:16:07.128Z,54.12
2019-03-03T20:18:44.036Z,53.96
2019-03-03T20:21:14.782Z,53.77
2019-03-03T20:23:45.196Z,54.08
2019-03-03T20:26:15.941Z,54.27
2019-03-03T20:28:46.459Z,54.35
2019-03-03T20:31:19.934Z,54.55
2019-03-03T20:33:53.109Z,54.77
2019-03-03T20:36:24.148Z,54.85
2019-03-03T20:38:54.913Z,54.68
2019-03-03T20:41:25.760Z,55.31
2019-03-03T20:43:56.551Z,55.58
2019-03-03T20:46:27.044Z,56.21
2019-03-03T20:48:57.768Z,56.01
2019-03-03T20:51:28.174Z,55.82
2019-03-03T20:54:02.390Z,56.26
2019-03-03T20:56:35.900Z,56.51
2019-03-03T20:59:08.857Z,57.27
2019-03-03T21:01:41.533Z,57.70
2019-03-03T21:04:12.648Z,57.41
2019-03-03T21:06:43.397Z,55.73
2019-03-03T21:09:15.438Z,55.66
2019-03-03T21:11:46.019Z,55.92
2019-03-03T21:14:16.451Z,56.47
2019-03-03T21:16:48.266Z,56.07
2019-03-03T21:19:19.069Z,56.09
2019-03-03T21:21:49.956Z,56.77
2019-03-03T21:24:20.492Z,56.11
2019-03-03T21:26:51.106Z,56.12
2019-03-03T21:29:21.851Z,55.51
2019-03-03T21:31:52.775Z,56.09
2019-03-03T21:34:23.510Z,56.12
2019-03-03T21:36:54.403Z,56.60
2019-03-03T21:39:24.866Z,53.84
2019-03-03T21:42:00.907Z,52.99
2019-03-03T21:44:31.346Z,54.72
2019-03-03T21:47:01.849Z,56.40
2019-03-03T21:49:32.368Z,57.00
2019-03-03T21:52:03.597Z,56.91
2019-03-03T21:54:34.046Z,57.66
2019-03-03T21:57:04.511Z,58.20
2019-03-03T21:59:34.985Z,57.93
2019-03-03T22:02:05.460Z,57.62
2019-03-03T22:04:35.892Z,56.78
2019-03-03T22:07:06.526Z,57.37
2019-03-03T22:09:36.818Z,57.55
2019-03-03T22:12:07.352Z,58.12
2019-03-03T22:14:37.828Z,57.03
2019-03-03T22:17:08.251Z,57.53
2019-03-03T22:19:38.648Z,57.65
2019-03-03T22:22:09.122Z,56.25
2019-03-03T22:24:39.452Z,56.77
2019-03-03T22:27:09.987Z,57.85
2019-03-03T22:29:40.440Z,56.87
2019-03-03T22:32:10.901Z,57.42
2019-03-03T22:34:41.302Z,57.83
2019-03-03T22:37:11.667Z,58.02
2019-03-03T22:39:42.170Z,57.85
2019-03-03T22:42:12.601Z,58.42
2019-03-03T22:44:43.141Z,56.86
2019-03-03T22:47:13.602Z,55.19
2019-03-03T22:49:43.979Z,55.39
2019-03-03T22:52:14.471Z,55.55
2019-03-03T22:54:44.831Z,54.51
2019-03-03T22:57:15.166Z,54.35
2019-03-03T22:59:45.663Z,55.87
2019-03-03T23:02:17.798Z,55.67
2019-03-03T23:05:17.832Z,56.14
2019-03-03T23:08:04.266Z,57.07
2019-03-03T23:11:23.979Z,56.67
2019-03-03T23:14:32.111Z,54.46
2019-03-03T23:17:52.831Z,55.52
2019-03-03T23:20:48.219Z,55.24
2019-03-03T23:24:10.759Z,56.39
2019-03-03T23:26:41.075Z,55.89
2019-03-03T23:29:11.546Z,55.23
2019-03-03T23:31:41.996Z,56.24
2019-03-03T23:34:12.433Z,55.76
2019-03-03T23:36:42.967Z,56.50
2019-03-03T23:39:13.380Z,54.67
2019-03-03T23:41:43.823Z,55.70
2019-03-03T23:44:14.155Z,54.42
2019-03-03T23:46:44.471Z,53.53
2019-03-03T23:49:15.149Z,54.57
2019-03-03T23:51:45.529Z,55.45
2019-03-03T23:54:15.896Z,55.93
2019-03-03T23:56:46.263Z,55.83
2019-03-03T23:59:16.682Z,55.67
